ENY222 KFLL-KEYW
Flight info
| Callsign | ENY222 |
|---|---|
| Flight time | 0h 45m |
| Altitude | 28000 |
| Route | MAYNR3 MAYNR FNTSY FNTSY1 |
| Aircraft | E75L/M-SDE3GILORVW/S |
Departure
| Time | 2026-05-03 21:38 |
|---|---|
| Airport | Fort Lauderdale Hollywood International Airport (KFLL) |
Arrival
| Time | 2026-05-03 22:23 |
|---|---|
| Airport | Key West International Airport (KEYW) |
| Time | Latitude | Longitude | Altitude | Speed | Heading |
|---|---|---|---|---|---|
| 2026-05-03 20:31 | 26.07262 | -80.14658 | 19 ft | 0 kts | 43° |
| 2026-05-03 20:55 | 26.07251 | -80.14669 | 21 ft | 3 kts | 43° |
| 2026-05-03 20:55 | 26.07242 | -80.14679 | 19 ft | 3 kts | 43° |
| 2026-05-03 20:55 | 26.07231 | -80.14690 | 19 ft | 0 kts | 43° |
| 2026-05-03 20:57 | 26.07236 | -80.14686 | 18 ft | 2 kts | 43° |
| 2026-05-03 20:57 | 26.07243 | -80.14678 | 19 ft | 0 kts | 40° |
| 2026-05-03 20:58 | 26.07245 | -80.14677 | 19 ft | 0 kts | 33° |
| 2026-05-03 20:58 | 26.07255 | -80.14681 | 20 ft | 1 kts | 302° |
| 2026-05-03 20:59 | 26.07254 | -80.14688 | 19 ft | 1 kts | 248° |
| 2026-05-03 20:59 | 26.07253 | -80.14689 | 19 ft | 0 kts | 240° |
| 2026-05-03 21:10 | 26.07252 | -80.14690 | 19 ft | 2 kts | 240° |
| 2026-05-03 21:11 | 26.07234 | -80.14718 | 19 ft | 0 kts | 233° |
| 2026-05-03 21:11 | 26.07231 | -80.14722 | 19 ft | 1 kts | 232° |
| 2026-05-03 21:11 | 26.07227 | -80.14729 | 21 ft | 0 kts | 233° |
| 2026-05-03 21:13 | 26.07223 | -80.14734 | 20 ft | 2 kts | 233° |
| 2026-05-03 21:13 | 26.07207 | -80.14758 | 20 ft | 6 kts | 232° |
| 2026-05-03 21:14 | 26.07195 | -80.14775 | 21 ft | 2 kts | 230° |
| 2026-05-03 21:14 | 26.07171 | -80.14803 | 21 ft | 7 kts | 226° |
| 2026-05-03 21:14 | 26.07136 | -80.14851 | 20 ft | 9 kts | 244° |
| 2026-05-03 21:14 | 26.07135 | -80.14909 | 21 ft | 6 kts | 294° |
| 2026-05-03 21:15 | 26.07163 | -80.14955 | 19 ft | 8 kts | 296° |
| 2026-05-03 21:15 | 26.07155 | -80.15010 | 20 ft | 6 kts | 252° |
| 2026-05-03 21:15 | 26.07159 | -80.15063 | 19 ft | 8 kts | 303° |
| 2026-05-03 21:15 | 26.07178 | -80.15092 | 19 ft | 1 kts | 304° |
| 2026-05-03 21:16 | 26.07164 | -80.15125 | 20 ft | 5 kts | 188° |
| 2026-05-03 21:16 | 26.07113 | -80.15127 | 20 ft | 14 kts | 181° |
| 2026-05-03 21:16 | 26.07010 | -80.15128 | 22 ft | 16 kts | 180° |
| 2026-05-03 21:16 | 26.06899 | -80.15130 | 22 ft | 15 kts | 180° |
| 2026-05-03 21:17 | 26.06798 | -80.15130 | 21 ft | 12 kts | 181° |
| 2026-05-03 21:17 | 26.06738 | -80.15132 | 21 ft | 13 kts | 185° |
| 2026-05-03 21:17 | 26.06694 | -80.15228 | 23 ft | 10 kts | 271° |
| 2026-05-03 21:17 | 26.06696 | -80.15305 | 24 ft | 11 kts | 271° |
| 2026-05-03 21:18 | 26.06696 | -80.15384 | 24 ft | 8 kts | 270° |
| 2026-05-03 21:18 | 26.06698 | -80.15457 | 23 ft | 11 kts | 269° |
| 2026-05-03 21:18 | 26.06697 | -80.15489 | 23 ft | 5 kts | 269° |
| 2026-05-03 21:18 | 26.06697 | -80.15496 | 23 ft | 0 kts | 269° |
| 2026-05-03 21:19 | 26.06697 | -80.15507 | 23 ft | 4 kts | 271° |
| 2026-05-03 21:19 | 26.06697 | -80.15508 | 23 ft | 0 kts | 270° |
| 2026-05-03 21:19 | 26.06697 | -80.15515 | 23 ft | 3 kts | 271° |
| 2026-05-03 21:20 | 26.06698 | -80.15539 | 22 ft | 1 kts | 270° |
| 2026-05-03 21:20 | 26.06698 | -80.15548 | 22 ft | 0 kts | 270° |
| 2026-05-03 21:25 | 26.06698 | -80.15549 | 22 ft | 1 kts | 270° |
| 2026-05-03 21:25 | 26.06698 | -80.15561 | 23 ft | 0 kts | 271° |
| 2026-05-03 21:27 | 26.06698 | -80.15562 | 23 ft | 1 kts | 271° |
| 2026-05-03 21:27 | 26.06698 | -80.15568 | 22 ft | 0 kts | 270° |
| 2026-05-03 21:28 | 26.06698 | -80.15579 | 22 ft | 3 kts | 270° |
| 2026-05-03 21:28 | 26.06698 | -80.15589 | 22 ft | 2 kts | 270° |
| 2026-05-03 21:28 | 26.06698 | -80.15623 | 21 ft | 6 kts | 269° |
| 2026-05-03 21:28 | 26.06698 | -80.15656 | 21 ft | 0 kts | 270° |
| 2026-05-03 21:29 | 26.06698 | -80.15667 | 21 ft | 3 kts | 270° |
| 2026-05-03 21:30 | 26.06698 | -80.15710 | 21 ft | 7 kts | 272° |
| 2026-05-03 21:30 | 26.06698 | -80.15715 | 21 ft | 0 kts | 272° |
| 2026-05-03 21:30 | 26.06698 | -80.15730 | 21 ft | 4 kts | 271° |
| 2026-05-03 21:30 | 26.06698 | -80.15756 | 21 ft | 4 kts | 269° |
| 2026-05-03 21:31 | 26.06698 | -80.15763 | 21 ft | 0 kts | 268° |
| 2026-05-03 21:34 | 26.06697 | -80.15772 | 20 ft | 4 kts | 266° |
| 2026-05-03 21:34 | 26.06684 | -80.15809 | 21 ft | 0 kts | 224° |
| 2026-05-03 21:35 | 26.06673 | -80.15816 | 20 ft | 6 kts | 204° |
| 2026-05-03 21:35 | 26.06606 | -80.15811 | 18 ft | 12 kts | 147° |
| 2026-05-03 21:35 | 26.06588 | -80.15773 | 19 ft | 0 kts | 93° |
| 2026-05-03 21:37 | 26.06588 | -80.15770 | 19 ft | 2 kts | 91° |
| 2026-05-03 21:37 | 26.06587 | -80.15483 | 23 ft | 85 kts | 92° |
| 2026-05-03 21:37 | 26.06582 | -80.14473 | 101 ft | 166 kts | 90° |
| 2026-05-03 21:38 | 26.06501 | -80.13085 | 777 ft | 191 kts | 92° |
| 2026-05-03 21:38 | 26.06409 | -80.11474 | 1478 ft | 230 kts | 90° |
| 2026-05-03 21:38 | 26.06419 | -80.09575 | 2104 ft | 254 kts | 86° |
| 2026-05-03 21:38 | 26.06526 | -80.07601 | 2734 ft | 264 kts | 85° |
| 2026-05-03 21:39 | 26.06634 | -80.05540 | 3383 ft | 269 kts | 87° |
| 2026-05-03 21:39 | 26.06689 | -80.03426 | 3967 ft | 277 kts | 89° |
| 2026-05-03 21:39 | 26.06700 | -80.01300 | 3979 ft | 278 kts | 90° |
| 2026-05-03 21:39 | 26.06699 | -79.99169 | 3980 ft | 275 kts | 90° |
| 2026-05-03 21:40 | 26.06724 | -79.97049 | 3988 ft | 275 kts | 90° |
| 2026-05-03 21:40 | 26.06398 | -79.94964 | 3975 ft | 274 kts | 116° |
| 2026-05-03 21:40 | 26.05157 | -79.93417 | 3981 ft | 269 kts | 152° |
| 2026-05-03 21:40 | 26.03413 | -79.92946 | 3994 ft | 261 kts | 186° |
| 2026-05-03 21:41 | 26.01714 | -79.93534 | 4045 ft | 257 kts | 211° |
| 2026-05-03 21:41 | 26.00168 | -79.94554 | 4042 ft | 257 kts | 213° |
| 2026-05-03 21:41 | 25.98633 | -79.95582 | 3986 ft | 259 kts | 213° |
| 2026-05-03 21:41 | 25.97077 | -79.96549 | 3948 ft | 256 kts | 204° |
| 2026-05-03 21:42 | 25.95313 | -79.96794 | 4021 ft | 263 kts | 176° |
| 2026-05-03 21:42 | 25.93492 | -79.96467 | 4042 ft | 266 kts | 173° |
| 2026-05-03 21:42 | 25.91655 | -79.96131 | 3950 ft | 263 kts | 173° |
| 2026-05-03 21:42 | 25.89863 | -79.95809 | 3998 ft | 264 kts | 173° |
| 2026-05-03 21:43 | 25.88044 | -79.95480 | 3950 ft | 263 kts | 173° |
| 2026-05-03 21:43 | 25.86239 | -79.95159 | 3954 ft | 262 kts | 173° |
| 2026-05-03 21:43 | 25.84438 | -79.94838 | 4039 ft | 263 kts | 173° |
| 2026-05-03 21:43 | 25.82638 | -79.94515 | 4298 ft | 264 kts | 173° |
| 2026-05-03 21:44 | 25.80819 | -79.94181 | 4551 ft | 268 kts | 173° |
| 2026-05-03 21:44 | 25.78984 | -79.93839 | 4786 ft | 266 kts | 173° |
| 2026-05-03 21:44 | 25.77172 | -79.93501 | 4994 ft | 268 kts | 174° |
| 2026-05-03 21:44 | 25.75344 | -79.93175 | 5001 ft | 267 kts | 174° |
| 2026-05-03 21:45 | 25.73525 | -79.92839 | 4994 ft | 266 kts | 174° |
| 2026-05-03 21:45 | 25.71718 | -79.92481 | 5018 ft | 266 kts | 169° |
| 2026-05-03 21:45 | 25.70056 | -79.91564 | 4993 ft | 274 kts | 142° |
| 2026-05-03 21:45 | 25.68866 | -79.89901 | 4991 ft | 278 kts | 123° |
| 2026-05-03 21:46 | 25.67882 | -79.88086 | 5001 ft | 279 kts | 123° |
| 2026-05-03 21:46 | 25.66860 | -79.86232 | 4972 ft | 278 kts | 123° |
| 2026-05-03 21:46 | 25.65872 | -79.84437 | 4970 ft | 278 kts | 123° |
| 2026-05-03 21:46 | 25.64855 | -79.82587 | 4967 ft | 278 kts | 123° |
| 2026-05-03 21:47 | 25.63863 | -79.80780 | 4993 ft | 278 kts | 123° |
| 2026-05-03 21:47 | 25.62860 | -79.78955 | 5152 ft | 276 kts | 123° |
| 2026-05-03 21:47 | 25.61847 | -79.77129 | 5406 ft | 277 kts | 126° |
| 2026-05-03 21:47 | 25.60449 | -79.75708 | 5634 ft | 272 kts | 157° |
| 2026-05-03 21:48 | 25.58635 | -79.75350 | 5884 ft | 264 kts | 190° |
| 2026-05-03 21:48 | 25.56969 | -79.76110 | 6147 ft | 259 kts | 215° |
| 2026-05-03 21:48 | 25.55484 | -79.77237 | 6393 ft | 260 kts | 216° |
| 2026-05-03 21:48 | 25.53972 | -79.78362 | 6619 ft | 262 kts | 216° |
| 2026-05-03 21:49 | 25.52589 | -79.79610 | 6843 ft | 261 kts | 226° |
| 2026-05-03 21:49 | 25.51298 | -79.81015 | 7082 ft | 261 kts | 225° |
| 2026-05-03 21:49 | 25.49997 | -79.82411 | 7315 ft | 262 kts | 225° |
| 2026-05-03 21:49 | 25.48702 | -79.83798 | 7544 ft | 262 kts | 225° |
| 2026-05-03 21:50 | 25.47387 | -79.85204 | 7786 ft | 263 kts | 225° |
| 2026-05-03 21:50 | 25.46070 | -79.86608 | 8030 ft | 265 kts | 225° |
| 2026-05-03 21:50 | 25.44768 | -79.87998 | 8262 ft | 265 kts | 225° |
| 2026-05-03 21:50 | 25.43440 | -79.89407 | 8509 ft | 266 kts | 225° |
| 2026-05-03 21:51 | 25.42096 | -79.90841 | 8771 ft | 267 kts | 226° |
| 2026-05-03 21:51 | 25.40781 | -79.92276 | 9010 ft | 267 kts | 226° |
| 2026-05-03 21:51 | 25.39487 | -79.93688 | 9515 ft | 266 kts | 226° |
| 2026-05-03 21:51 | 25.38152 | -79.95134 | 10069 ft | 270 kts | 226° |
| 2026-05-03 21:52 | 25.36805 | -79.96578 | 10589 ft | 273 kts | 226° |
| 2026-05-03 21:52 | 25.35441 | -79.98050 | 11143 ft | 274 kts | 226° |
| 2026-05-03 21:52 | 25.34083 | -79.99519 | 11684 ft | 276 kts | 226° |
| 2026-05-03 21:52 | 25.32710 | -80.00997 | 12243 ft | 278 kts | 226° |
| 2026-05-03 21:53 | 25.31320 | -80.02484 | 12835 ft | 280 kts | 226° |
| 2026-05-03 21:53 | 25.29898 | -80.04010 | 13394 ft | 305 kts | 226° |
| 2026-05-03 21:53 | 25.28305 | -80.05734 | 13970 ft | 327 kts | 226° |
| 2026-05-03 21:53 | 25.26669 | -80.07511 | 14495 ft | 331 kts | 226° |
| 2026-05-03 21:54 | 25.25036 | -80.09283 | 15035 ft | 333 kts | 226° |
| 2026-05-03 21:54 | 25.23365 | -80.11093 | 15576 ft | 336 kts | 226° |
| 2026-05-03 21:54 | 25.21686 | -80.12908 | 15961 ft | 342 kts | 226° |
| 2026-05-03 21:54 | 25.19996 | -80.14733 | 15969 ft | 339 kts | 226° |
| 2026-05-03 21:55 | 25.18312 | -80.16548 | 15975 ft | 338 kts | 226° |
| 2026-05-03 21:55 | 25.16631 | -80.18358 | 15987 ft | 337 kts | 226° |
| 2026-05-03 21:55 | 25.14949 | -80.20153 | 15987 ft | 337 kts | 226° |
| 2026-05-03 21:55 | 25.13266 | -80.21950 | 15985 ft | 337 kts | 226° |
| 2026-05-03 21:56 | 25.11584 | -80.23753 | 15986 ft | 336 kts | 227° |
| 2026-05-03 21:56 | 25.10072 | -80.25664 | 15991 ft | 335 kts | 234° |
| 2026-05-03 21:56 | 25.08809 | -80.27857 | 15988 ft | 334 kts | 243° |
| 2026-05-03 21:56 | 25.07820 | -80.30116 | 15986 ft | 334 kts | 246° |
| 2026-05-03 21:57 | 25.06897 | -80.32480 | 15983 ft | 334 kts | 248° |
| 2026-05-03 21:57 | 25.06027 | -80.34839 | 15983 ft | 334 kts | 248° |
| 2026-05-03 21:57 | 25.05030 | -80.37153 | 15981 ft | 334 kts | 243° |
| 2026-05-03 21:57 | 25.03939 | -80.39412 | 15982 ft | 334 kts | 242° |
| 2026-05-03 21:58 | 25.02823 | -80.41675 | 15980 ft | 334 kts | 242° |
| 2026-05-03 21:58 | 25.01711 | -80.43918 | 15971 ft | 335 kts | 242° |
| 2026-05-03 21:58 | 25.00540 | -80.46151 | 15991 ft | 337 kts | 238° |
| 2026-05-03 21:58 | 24.99161 | -80.48228 | 15990 ft | 337 kts | 231° |
| 2026-05-03 21:59 | 24.97534 | -80.50059 | 15988 ft | 339 kts | 223° |
| 2026-05-03 21:59 | 24.95678 | -80.51662 | 15870 ft | 339 kts | 220° |
| 2026-05-03 21:59 | 24.93876 | -80.53340 | 15757 ft | 338 kts | 222° |
| 2026-05-03 21:59 | 24.91928 | -80.54784 | 15620 ft | 340 kts | 210° |
| 2026-05-03 22:00 | 24.89692 | -80.55669 | 15509 ft | 344 kts | 198° |
| 2026-05-03 22:00 | 24.87319 | -80.56155 | 15375 ft | 346 kts | 193° |
| 2026-05-03 22:00 | 24.85034 | -80.56841 | 15253 ft | 340 kts | 209° |
| 2026-05-03 22:00 | 24.83215 | -80.58437 | 15137 ft | 333 kts | 232° |
| 2026-05-03 22:01 | 24.82158 | -80.60642 | 15020 ft | 330 kts | 253° |
| 2026-05-03 22:01 | 24.81758 | -80.63158 | 14916 ft | 331 kts | 262° |
| 2026-05-03 22:01 | 24.81453 | -80.65622 | 14724 ft | 331 kts | 261° |
| 2026-05-03 22:01 | 24.81140 | -80.68108 | 14490 ft | 329 kts | 262° |
| 2026-05-03 22:02 | 24.80846 | -80.70591 | 14260 ft | 328 kts | 262° |
| 2026-05-03 22:02 | 24.80566 | -80.73085 | 14028 ft | 328 kts | 262° |
| 2026-05-03 22:02 | 24.80291 | -80.75551 | 13792 ft | 322 kts | 262° |
| 2026-05-03 22:02 | 24.80024 | -80.77951 | 13535 ft | 312 kts | 263° |
| 2026-05-03 22:03 | 24.79772 | -80.80313 | 13280 ft | 311 kts | 263° |
| 2026-05-03 22:03 | 24.79505 | -80.82659 | 13031 ft | 311 kts | 262° |
| 2026-05-03 22:03 | 24.79214 | -80.85011 | 12778 ft | 310 kts | 262° |
| 2026-05-03 22:03 | 24.78921 | -80.87351 | 12537 ft | 310 kts | 262° |
| 2026-05-03 22:04 | 24.78643 | -80.89663 | 12283 ft | 309 kts | 262° |
| 2026-05-03 22:04 | 24.78354 | -80.91994 | 12042 ft | 306 kts | 262° |
| 2026-05-03 22:04 | 24.78051 | -80.94283 | 11800 ft | 305 kts | 261° |
| 2026-05-03 22:04 | 24.77732 | -80.96583 | 11557 ft | 304 kts | 261° |
| 2026-05-03 22:05 | 24.77413 | -80.98871 | 11319 ft | 303 kts | 261° |
| 2026-05-03 22:05 | 24.77048 | -81.01155 | 11070 ft | 302 kts | 255° |
| 2026-05-03 22:05 | 24.76189 | -81.03249 | 10845 ft | 302 kts | 240° |
| 2026-05-03 22:05 | 24.75115 | -81.05231 | 10619 ft | 302 kts | 240° |
| 2026-05-03 22:06 | 24.74040 | -81.07220 | 10389 ft | 302 kts | 240° |
| 2026-05-03 22:06 | 24.72974 | -81.09182 | 10156 ft | 302 kts | 240° |
| 2026-05-03 22:06 | 24.72060 | -81.11249 | 9930 ft | 300 kts | 251° |
| 2026-05-03 22:06 | 24.71386 | -81.13426 | 9685 ft | 300 kts | 252° |
| 2026-05-03 22:07 | 24.70724 | -81.15595 | 9438 ft | 298 kts | 252° |
| 2026-05-03 22:07 | 24.70069 | -81.17747 | 9184 ft | 297 kts | 252° |
| 2026-05-03 22:07 | 24.69418 | -81.19902 | 8933 ft | 295 kts | 252° |
| 2026-05-03 22:07 | 24.68774 | -81.22039 | 8683 ft | 294 kts | 252° |
| 2026-05-03 22:08 | 24.68133 | -81.24185 | 8434 ft | 293 kts | 252° |
| 2026-05-03 22:08 | 24.67491 | -81.26305 | 8186 ft | 293 kts | 251° |
| 2026-05-03 22:08 | 24.66846 | -81.28414 | 7957 ft | 294 kts | 251° |
| 2026-05-03 22:08 | 24.66190 | -81.30537 | 7712 ft | 290 kts | 251° |
| 2026-05-03 22:09 | 24.65531 | -81.32618 | 7471 ft | 288 kts | 251° |
| 2026-05-03 22:09 | 24.64876 | -81.34700 | 7223 ft | 289 kts | 251° |
| 2026-05-03 22:09 | 24.64229 | -81.36778 | 6991 ft | 288 kts | 251° |
| 2026-05-03 22:10 | 24.62978 | -81.40950 | 6514 ft | 287 kts | 252° |
| 2026-05-03 22:10 | 24.62369 | -81.43046 | 6269 ft | 284 kts | 252° |
| 2026-05-03 22:10 | 24.61792 | -81.45056 | 6020 ft | 273 kts | 252° |
| 2026-05-03 22:10 | 24.61226 | -81.47032 | 5770 ft | 270 kts | 251° |
| 2026-05-03 22:11 | 24.60577 | -81.48946 | 5526 ft | 271 kts | 248° |
| 2026-05-03 22:11 | 24.59892 | -81.50865 | 5297 ft | 271 kts | 248° |
| 2026-05-03 22:11 | 24.59207 | -81.52791 | 5060 ft | 270 kts | 248° |
| 2026-05-03 22:11 | 24.58531 | -81.54695 | 4821 ft | 269 kts | 248° |
| 2026-05-03 22:12 | 24.57855 | -81.56597 | 4563 ft | 268 kts | 248° |
| 2026-05-03 22:12 | 24.57186 | -81.58497 | 4327 ft | 267 kts | 249° |
| 2026-05-03 22:12 | 24.56517 | -81.60402 | 4149 ft | 265 kts | 248° |
| 2026-05-03 22:12 | 24.55849 | -81.62293 | 4039 ft | 267 kts | 248° |
| 2026-05-03 22:13 | 24.55163 | -81.64181 | 3914 ft | 267 kts | 248° |
| 2026-05-03 22:13 | 24.54458 | -81.66083 | 3798 ft | 266 kts | 248° |
| 2026-05-03 22:13 | 24.53768 | -81.67936 | 3688 ft | 265 kts | 248° |
| 2026-05-03 22:13 | 24.53073 | -81.69780 | 3554 ft | 254 kts | 248° |
| 2026-05-03 22:14 | 24.52420 | -81.71536 | 3425 ft | 242 kts | 248° |
| 2026-05-03 22:14 | 24.51851 | -81.73227 | 3296 ft | 231 kts | 252° |
| 2026-05-03 22:14 | 24.51393 | -81.74907 | 3166 ft | 223 kts | 253° |
| 2026-05-03 22:14 | 24.50958 | -81.76502 | 3049 ft | 220 kts | 253° |
| 2026-05-03 22:15 | 24.50516 | -81.78092 | 2998 ft | 213 kts | 253° |
| 2026-05-03 22:15 | 24.50103 | -81.79615 | 2983 ft | 203 kts | 253° |
| 2026-05-03 22:15 | 24.49706 | -81.81031 | 3000 ft | 184 kts | 252° |
| 2026-05-03 22:15 | 24.49337 | -81.82333 | 2934 ft | 177 kts | 252° |
| 2026-05-03 22:16 | 24.48978 | -81.83610 | 3073 ft | 176 kts | 252° |
| 2026-05-03 22:16 | 24.48617 | -81.84924 | 3077 ft | 183 kts | 253° |
| 2026-05-03 22:16 | 24.48245 | -81.86257 | 2986 ft | 184 kts | 253° |
| 2026-05-03 22:16 | 24.47876 | -81.87591 | 2917 ft | 179 kts | 253° |
| 2026-05-03 22:17 | 24.47521 | -81.88871 | 2871 ft | 178 kts | 253° |
| 2026-05-03 22:17 | 24.47159 | -81.90180 | 2827 ft | 181 kts | 253° |
| 2026-05-03 22:17 | 24.46798 | -81.91496 | 2768 ft | 180 kts | 253° |
| 2026-05-03 22:17 | 24.46497 | -81.92840 | 2659 ft | 183 kts | 268° |
| 2026-05-03 22:18 | 24.46918 | -81.94145 | 2572 ft | 185 kts | 310° |
| 2026-05-03 22:18 | 24.47945 | -81.94912 | 2491 ft | 177 kts | 331° |
| 2026-05-03 22:18 | 24.49169 | -81.95086 | 2400 ft | 182 kts | 2° |
| 2026-05-03 22:18 | 24.50431 | -81.94987 | 2296 ft | 182 kts | 360° |
| 2026-05-03 22:19 | 24.51679 | -81.94723 | 2184 ft | 183 kts | 12° |
| 2026-05-03 22:19 | 24.52908 | -81.94431 | 2091 ft | 182 kts | 10° |
| 2026-05-03 22:19 | 24.54079 | -81.93909 | 2001 ft | 182 kts | 31° |
| 2026-05-03 22:19 | 24.55130 | -81.93190 | 1992 ft | 178 kts | 35° |
| 2026-05-03 22:20 | 24.55881 | -81.92090 | 1963 ft | 187 kts | 62° |
| 2026-05-03 22:20 | 24.56327 | -81.90781 | 1884 ft | 182 kts | 76° |
| 2026-05-03 22:20 | 24.56393 | -81.89416 | 1803 ft | 182 kts | 106° |
| 2026-05-03 22:20 | 24.55960 | -81.88114 | 1748 ft | 179 kts | 112° |
| 2026-05-03 22:21 | 24.55523 | -81.86856 | 1787 ft | 175 kts | 106° |
| 2026-05-03 22:21 | 24.55400 | -81.85561 | 1698 ft | 166 kts | 87° |
| 2026-05-03 22:21 | 24.55463 | -81.84280 | 1788 ft | 170 kts | 86° |
| 2026-05-03 22:21 | 24.55514 | -81.83039 | 1465 ft | 154 kts | 88° |
| 2026-05-03 22:22 | 24.55551 | -81.81907 | 1162 ft | 148 kts | 86° |
| 2026-05-03 22:22 | 24.55583 | -81.80786 | 757 ft | 147 kts | 89° |
| 2026-05-03 22:22 | 24.55585 | -81.79718 | 608 ft | 138 kts | 89° |
| 2026-05-03 22:22 | 24.55591 | -81.78660 | 457 ft | 138 kts | 85° |
| 2026-05-03 22:23 | 24.55589 | -81.77653 | 266 ft | 127 kts | 85° |
| 2026-05-03 22:23 | 24.55600 | -81.76715 | 37 ft | 117 kts | 85° |
| 2026-05-03 22:23 | 24.55621 | -81.75929 | 9 ft | 83 kts | 90° |
| 2026-05-03 22:23 | 24.55614 | -81.75623 | 14 ft | 21 kts | 111° |
| 2026-05-03 22:24 | 24.55547 | -81.75590 | 14 ft | 10 kts | 177° |
| 2026-05-03 22:24 | 24.55510 | -81.75580 | 13 ft | 3 kts | 131° |